NWWW METAR and TAF weather

Enter ICAO airport designator
Station Type Date Time Source
NWWW METAR 2021/01/17 19:00 UTC NOAA

NWWW 171900Z AUTO VRB02KT CAVOK 23/23 Q1010 TEMPO 4500 SHRA FEW020TCU


Station Type Date Time Source
NWWW Decoded METAR 2021/01/17 19:00 UTC NOAA

La Tontouta Nlle-Caledonie , New Caledonia (NWWW) 22-01S 166-13E 14M
Jan 17, 2021 - 02:00 PM EST / 2021.01.17 1900 UTC
Wind: Variable at 2 MPH (2 KT):0
Visibility: greater than 7 mile(s):0
Weather: Towering cumulus clouds observed
Temperature: 73 F (23 C)
Dew Point: 73 F (23 C)
Relative Humidity: 100%
Pressure (altimeter): 29.83 in. Hg (1010 hPa)
ob: NWWW 171900Z AUTO VRB02KT CAVOK 23/23 Q1010 TEMPO 4500 SHRA FEW020TCU
cycle: 19

Station Type Date Time Source
NWWW TAF 2021/01/17 18:10 UTC NOAA

TAF NWWW 171700Z 1718/1818 13010KT 9999 FEW025 BKN045
TEMPO 1718/1724 4500 SHRA FEW020TCU
TEMPO 1800/1818 4000 SHRA BKN012 FEW015CB SCT018TCU

Example: see airport list